sensor_id;sensor_type;location;lat;lon;timestamp;pressure;altitude;pressure_sealevel;temperature;humidity
71126;BME280;58785;55.566;38.058;2023-07-31T00:00:30;99511.59;;;15.99;76.83
71126;BME280;58785;55.566;38.058;2023-07-31T00:02:56;99505.97;;;15.94;76.64
71126;BME280;58785;55.566;38.058;2023-07-31T00:05:21;99504.13;;;15.95;76.70
71126;BME280;58785;55.566;38.058;2023-07-31T00:07:47;99510.34;;;15.95;76.49
71126;BME280;58785;55.566;38.058;2023-07-31T00:10:13;99514.22;;;15.93;76.83
71126;BME280;58785;55.566;38.058;2023-07-31T00:12:43;99512.34;;;15.93;76.37
71126;BME280;58785;55.566;38.058;2023-07-31T00:15:09;99506.13;;;15.86;76.71
71126;BME280;58785;55.566;38.058;2023-07-31T00:17:36;99508.22;;;15.91;76.42
71126;BME280;58785;55.566;38.058;2023-07-31T00:20:02;99501.59;;;15.87;76.99
71126;BME280;58785;55.566;38.058;2023-07-31T00:22:30;99502.84;;;15.91;76.48
71126;BME280;58785;55.566;38.058;2023-07-31T00:24:56;99507.59;;;15.89;76.74
71126;BME280;58785;55.566;38.058;2023-07-31T00:27:22;99515.66;;;15.89;76.67
71126;BME280;58785;55.566;38.058;2023-07-31T00:29:48;99505.72;;;15.89;76.70
71126;BME280;58785;55.566;38.058;2023-07-31T00:32:14;99511.94;;;15.90;76.83
71126;BME280;58785;55.566;38.058;2023-07-31T00:34:39;99510.06;;;15.90;76.72
71126;BME280;58785;55.566;38.058;2023-07-31T00:37:05;99508.22;;;15.91;76.88
71126;BME280;58785;55.566;38.058;2023-07-31T00:39:34;99508.00;;;15.92;76.72
71126;BME280;58785;55.566;38.058;2023-07-31T00:42:00;99504.28;;;15.93;76.10
71126;BME280;58785;55.566;38.058;2023-07-31T00:44:26;99501.44;;;15.95;76.36
71126;BME280;58785;55.566;38.058;2023-07-31T00:46:53;99502.25;;;15.95;76.36
71126;BME280;58785;55.566;38.058;2023-07-31T00:49:20;99513.66;;;15.97;76.41
71126;BME280;58785;55.566;38.058;2023-07-31T00:51:47;99507.63;;;15.95;76.23
71126;BME280;58785;55.566;38.058;2023-07-31T00:54:13;99506.97;;;15.93;76.25
71126;BME280;58785;55.566;38.058;2023-07-31T00:56:40;99504.50;;;15.92;76.39
71126;BME280;58785;55.566;38.058;2023-07-31T00:59:06;99509.88;;;15.92;76.59
71126;BME280;58785;55.566;38.058;2023-07-31T01:01:32;99510.28;;;15.89;76.43
71126;BME280;58785;55.566;38.058;2023-07-31T01:03:58;99507.16;;;15.85;76.74
71126;BME280;58785;55.566;38.058;2023-07-31T01:06:37;99509.78;;;15.78;76.86
71126;BME280;58785;55.566;38.058;2023-07-31T01:11:35;99516.00;;;15.79;76.97
71126;BME280;58785;55.566;38.058;2023-07-31T01:14:02;99512.47;;;15.78;76.51
71126;BME280;58785;55.566;38.058;2023-07-31T01:16:28;99506.22;;;15.71;76.69
71126;BME280;58785;55.566;38.058;2023-07-31T01:18:54;99504.19;;;15.73;76.89
71126;BME280;58785;55.566;38.058;2023-07-31T01:24:20;99503.72;;;15.70;77.24
71126;BME280;58785;55.566;38.058;2023-07-31T01:27:10;99511.78;;;15.70;76.85
71126;BME280;58785;55.566;38.058;2023-07-31T01:29:50;99510.97;;;15.69;76.95
71126;BME280;58785;55.566;38.058;2023-07-31T01:32:19;99513.66;;;15.69;76.83
71126;BME280;58785;55.566;38.058;2023-07-31T01:34:45;99504.13;;;15.67;77.19
71126;BME280;58785;55.566;38.058;2023-07-31T01:37:12;99509.50;;;15.67;76.86
71126;BME280;58785;55.566;38.058;2023-07-31T01:39:38;99505.78;;;15.68;77.25
71126;BME280;58785;55.566;38.058;2023-07-31T01:42:04;99510.75;;;15.71;76.94
71126;BME280;58785;55.566;38.058;2023-07-31T01:44:29;99519.66;;;15.71;77.04
71126;BME280;58785;55.566;38.058;2023-07-31T01:46:55;99509.31;;;15.68;77.24
71126;BME280;58785;55.566;38.058;2023-07-31T01:49:21;99514.94;;;15.73;77.08
71126;BME280;58785;55.566;38.058;2023-07-31T01:51:46;99518.88;;;15.77;76.78
71126;BME280;58785;55.566;38.058;2023-07-31T01:54:12;99512.28;;;15.80;77.03
71126;BME280;58785;55.566;38.058;2023-07-31T01:56:38;99522.63;;;15.83;76.76
71126;BME280;58785;55.566;38.058;2023-07-31T01:59:03;99518.94;;;15.84;76.95
71126;BME280;58785;55.566;38.058;2023-07-31T02:01:29;99512.34;;;15.87;76.53
71126;BME280;58785;55.566;38.058;2023-07-31T02:03:55;99517.31;;;15.90;76.78
71126;BME280;58785;55.566;38.058;2023-07-31T02:06:21;99520.63;;;15.92;76.53
71126;BME280;58785;55.566;38.058;2023-07-31T02:08:47;99517.56;;;15.95;76.78
71126;BME280;58785;55.566;38.058;2023-07-31T02:11:13;99517.38;;;15.96;76.64
71126;BME280;58785;55.566;38.058;2023-07-31T02:13:39;99516.34;;;15.97;76.46
71126;BME280;58785;55.566;38.058;2023-07-31T02:16:05;99517.59;;;16.01;76.31
71126;BME280;58785;55.566;38.058;2023-07-31T02:18:30;99518.03;;;16.05;76.57
71126;BME280;58785;55.566;38.058;2023-07-31T02:20:56;99512.25;;;16.08;76.40
71126;BME280;58785;55.566;38.058;2023-07-31T02:23:22;99521.59;;;16.12;76.75
71126;BME280;58785;55.566;38.058;2023-07-31T02:25:48;99525.56;;;16.16;76.37
71126;BME280;58785;55.566;38.058;2023-07-31T02:28:13;99517.88;;;16.13;76.57
71126;BME280;58785;55.566;38.058;2023-07-31T02:30:39;99534.47;;;16.23;76.33
71126;BME280;58785;55.566;38.058;2023-07-31T02:33:05;99527.25;;;16.24;76.28
71126;BME280;58785;55.566;38.058;2023-07-31T02:35:31;99524.22;;;16.33;76.06
71126;BME280;58785;55.566;38.058;2023-07-31T02:37:57;99525.03;;;16.34;76.15
71126;BME280;58785;55.566;38.058;2023-07-31T02:40:22;99523.66;;;16.45;75.91
71126;BME280;58785;55.566;38.058;2023-07-31T02:42:49;99526.56;;;16.50;75.76
71126;BME280;58785;55.566;38.058;2023-07-31T02:45:14;99518.41;;;16.78;75.37
71126;BME280;58785;55.566;38.058;2023-07-31T02:47:40;99525.38;;;17.27;74.58
71126;BME280;58785;55.566;38.058;2023-07-31T02:50:06;99519.41;;;17.71;73.77
71126;BME280;58785;55.566;38.058;2023-07-31T02:52:32;99522.28;;;18.09;73.04
71126;BME280;58785;55.566;38.058;2023-07-31T02:54:58;99525.91;;;18.48;72.68
71126;BME280;58785;55.566;38.058;2023-07-31T02:57:24;99511.47;;;18.80;71.73
71126;BME280;58785;55.566;38.058;2023-07-31T02:59:50;99521.66;;;19.16;71.05
71126;BME280;58785;55.566;38.058;2023-07-31T03:02:15;99517.94;;;19.42;70.68
71126;BME280;58785;55.566;38.058;2023-07-31T03:04:41;99515.28;;;19.67;70.11
71126;BME280;58785;55.566;38.058;2023-07-31T03:07:06;99510.53;;;19.88;69.32
71126;BME280;58785;55.566;38.058;2023-07-31T03:09:32;99519.59;;;20.18;68.53
71126;BME280;58785;55.566;38.058;2023-07-31T03:11:58;99519.75;;;20.42;68.16
71126;BME280;58785;55.566;38.058;2023-07-31T03:14:23;99509.75;;;20.60;67.35
71126;BME280;58785;55.566;38.058;2023-07-31T03:16:51;99505.97;;;20.80;66.80
71126;BME280;58785;55.566;38.058;2023-07-31T03:19:17;99512.31;;;21.04;66.25
71126;BME280;58785;55.566;38.058;2023-07-31T03:21:43;99509.78;;;21.20;65.69
71126;BME280;58785;55.566;38.058;2023-07-31T03:24:09;99514.00;;;21.35;65.06
71126;BME280;58785;55.566;38.058;2023-07-31T03:26:34;99514.69;;;21.42;64.83
71126;BME280;58785;55.566;38.058;2023-07-31T03:29:01;99513.19;;;21.58;63.97
71126;BME280;58785;55.566;38.058;2023-07-31T03:31:27;99518.75;;;21.74;63.64
71126;BME280;58785;55.566;38.058;2023-07-31T03:33:53;99521.84;;;21.90;63.07
71126;BME280;58785;55.566;38.058;2023-07-31T03:36:18;99505.78;;;22.00;62.87
71126;BME280;58785;55.566;38.058;2023-07-31T03:38:45;99518.53;;;22.23;62.03
71126;BME280;58785;55.566;38.058;2023-07-31T03:41:11;99523.25;;;22.39;61.77
71126;BME280;58785;55.566;38.058;2023-07-31T03:43:37;99522.03;;;22.58;61.08
71126;BME280;58785;55.566;38.058;2023-07-31T03:46:03;99509.56;;;22.74;61.02
71126;BME280;58785;55.566;38.058;2023-07-31T03:48:28;99501.19;;;22.87;60.46
71126;BME280;58785;55.566;38.058;2023-07-31T03:50:55;99512.50;;;22.96;60.10
71126;BME280;58785;55.566;38.058;2023-07-31T03:53:21;99502.78;;;23.00;60.18
71126;BME280;58785;55.566;38.058;2023-07-31T03:55:46;99501.31;;;23.09;60.00
71126;BME280;58785;55.566;38.058;2023-07-31T03:58:12;99503.28;;;23.14;59.82
71126;BME280;58785;55.566;38.058;2023-07-31T04:00:40;99512.13;;;23.21;59.72
71126;BME280;58785;55.566;38.058;2023-07-31T04:03:06;99499.19;;;23.28;59.23
71126;BME280;58785;55.566;38.058;2023-07-31T04:05:32;99513.88;;;23.44;59.30
71126;BME280;58785;55.566;38.058;2023-07-31T04:07:58;99515.22;;;23.58;58.83
71126;BME280;58785;55.566;38.058;2023-07-31T04:10:24;99513.03;;;23.72;58.46
71126;BME280;58785;55.566;38.058;2023-07-31T04:12:50;99515.59;;;23.78;58.22
71126;BME280;58785;55.566;38.058;2023-07-31T04:15:15;99515.75;;;23.89;57.95
71126;BME280;58785;55.566;38.058;2023-07-31T04:17:41;99507.97;;;23.97;57.69
71126;BME280;58785;55.566;38.058;2023-07-31T04:20:07;99521.41;;;24.04;57.58
71126;BME280;58785;55.566;38.058;2023-07-31T04:22:33;99519.03;;;24.07;57.76
71126;BME280;58785;55.566;38.058;2023-07-31T04:24:59;99524.06;;;24.16;57.43
71126;BME280;58785;55.566;38.058;2023-07-31T04:27:25;99526.09;;;24.25;57.13
71126;BME280;58785;55.566;38.058;2023-07-31T04:29:50;99525.75;;;24.39;56.91
71126;BME280;58785;55.566;38.058;2023-07-31T04:32:16;99521.25;;;24.49;56.99
71126;BME280;58785;55.566;38.058;2023-07-31T04:34:45;99523.56;;;24.57;56.76
71126;BME280;58785;55.566;38.058;2023-07-31T04:37:19;99523.47;;;24.52;57.00
71126;BME280;58785;55.566;38.058;2023-07-31T04:39:45;99531.66;;;24.52;57.21
71126;BME280;58785;55.566;38.058;2023-07-31T04:42:13;99524.63;;;24.56;57.27
71126;BME280;58785;55.566;38.058;2023-07-31T04:44:39;99519.50;;;24.60;57.09
71126;BME280;58785;55.566;38.058;2023-07-31T04:47:06;99526.97;;;24.70;57.02
71126;BME280;58785;55.566;38.058;2023-07-31T04:49:32;99520.50;;;24.76;57.03
71126;BME280;58785;55.566;38.058;2023-07-31T04:51:58;99534.28;;;24.86;56.65
71126;BME280;58785;55.566;38.058;2023-07-31T04:54:24;99529.81;;;25.02;57.10
71126;BME280;58785;55.566;38.058;2023-07-31T04:56:49;99532.03;;;25.05;56.46
71126;BME280;58785;55.566;38.058;2023-07-31T04:59:15;99536.22;;;25.12;56.59
71126;BME280;58785;55.566;38.058;2023-07-31T05:01:41;99537.59;;;25.15;56.35
71126;BME280;58785;55.566;38.058;2023-07-31T05:04:07;99535.28;;;25.29;56.32
71126;BME280;58785;55.566;38.058;2023-07-31T05:06:32;99533.59;;;25.49;56.33
71126;BME280;58785;55.566;38.058;2023-07-31T05:08:58;99537.06;;;25.72;56.00
71126;BME280;58785;55.566;38.058;2023-07-31T05:11:24;99535.84;;;25.90;55.98
71126;BME280;58785;55.566;38.058;2023-07-31T05:13:49;99531.00;;;26.02;55.15
71126;BME280;58785;55.566;38.058;2023-07-31T05:16:15;99524.78;;;26.06;54.63
71126;BME280;58785;55.566;38.058;2023-07-31T05:18:41;99530.88;;;26.19;54.98
71126;BME280;58785;55.566;38.058;2023-07-31T05:21:07;99539.72;;;26.36;54.66
71126;BME280;58785;55.566;38.058;2023-07-31T05:23:32;99534.56;;;26.40;54.02
71126;BME280;58785;55.566;38.058;2023-07-31T05:26:07;99538.44;;;26.54;53.61
71126;BME280;58785;55.566;38.058;2023-07-31T05:28:35;99534.13;;;26.58;53.22
71126;BME280;58785;55.566;38.058;2023-07-31T05:31:03;99539.91;;;26.67;53.46
71126;BME280;58785;55.566;38.058;2023-07-31T05:33:29;99525.41;;;26.66;53.08
71126;BME280;58785;55.566;38.058;2023-07-31T05:35:54;99533.38;;;26.78;52.57
71126;BME280;58785;55.566;38.058;2023-07-31T05:38:20;99527.09;;;26.82;53.06
71126;BME280;58785;55.566;38.058;2023-07-31T05:40:47;99537.78;;;26.94;52.62
71126;BME280;58785;55.566;38.058;2023-07-31T05:43:13;99535.38;;;27.03;52.27
71126;BME280;58785;55.566;38.058;2023-07-31T05:45:39;99542.53;;;27.09;52.51
71126;BME280;58785;55.566;38.058;2023-07-31T05:48:06;99534.63;;;27.17;52.81
71126;BME280;58785;55.566;38.058;2023-07-31T05:50:32;99545.06;;;27.41;52.21
71126;BME280;58785;55.566;38.058;2023-07-31T05:52:57;99538.75;;;27.56;52.25
71126;BME280;58785;55.566;38.058;2023-07-31T05:55:24;99530.81;;;27.64;51.91
71126;BME280;58785;55.566;38.058;2023-07-31T05:57:52;99539.34;;;27.73;51.38
71126;BME280;58785;55.566;38.058;2023-07-31T06:00:18;99535.22;;;27.86;51.42
71126;BME280;58785;55.566;38.058;2023-07-31T06:02:44;99542.38;;;27.97;50.31
71126;BME280;58785;55.566;38.058;2023-07-31T06:05:10;99535.50;;;27.99;49.54
71126;BME280;58785;55.566;38.058;2023-07-31T06:07:36;99542.38;;;27.97;49.25
71126;BME280;58785;55.566;38.058;2023-07-31T06:10:02;99536.06;;;28.06;48.83
71126;BME280;58785;55.566;38.058;2023-07-31T06:12:32;99542.56;;;28.26;49.26
71126;BME280;58785;55.566;38.058;2023-07-31T06:14:59;99534.09;;;28.32;48.31
71126;BME280;58785;55.566;38.058;2023-07-31T06:17:25;99541.22;;;28.33;47.98
71126;BME280;58785;55.566;38.058;2023-07-31T06:19:52;99539.56;;;28.38;48.18
71126;BME280;58785;55.566;38.058;2023-07-31T06:22:18;99545.03;;;28.43;47.23
71126;BME280;58785;55.566;38.058;2023-07-31T06:24:44;99548.63;;;28.33;47.58
71126;BME280;58785;55.566;38.058;2023-07-31T06:27:11;99546.69;;;28.33;47.18
71126;BME280;58785;55.566;38.058;2023-07-31T06:29:36;99536.84;;;28.27;46.65
71126;BME280;58785;55.566;38.058;2023-07-31T06:32:02;99534.34;;;28.26;46.14
71126;BME280;58785;55.566;38.058;2023-07-31T06:34:28;99539.56;;;28.27;46.50
71126;BME280;58785;55.566;38.058;2023-07-31T06:36:57;99538.75;;;28.22;46.14
71126;BME280;58785;55.566;38.058;2023-07-31T06:39:23;99541.78;;;28.20;45.81
71126;BME280;58785;55.566;38.058;2023-07-31T06:41:49;99542.63;;;28.11;45.79
71126;BME280;58785;55.566;38.058;2023-07-31T06:44:15;99548.38;;;28.09;46.74
71126;BME280;58785;55.566;38.058;2023-07-31T06:46:40;99540.94;;;28.20;45.80
71126;BME280;58785;55.566;38.058;2023-07-31T06:49:07;99545.91;;;28.28;45.40
71126;BME280;58785;55.566;38.058;2023-07-31T06:51:33;99548.88;;;28.42;45.55
71126;BME280;58785;55.566;38.058;2023-07-31T06:53:59;99537.09;;;28.41;45.57
71126;BME280;58785;55.566;38.058;2023-07-31T06:56:24;99542.56;;;28.41;45.18
71126;BME280;58785;55.566;38.058;2023-07-31T06:58:51;99546.16;;;28.26;45.11
71126;BME280;58785;55.566;38.058;2023-07-31T07:01:17;99542.56;;;28.26;45.46
71126;BME280;58785;55.566;38.058;2023-07-31T07:03:43;99553.03;;;28.29;45.38
71126;BME280;58785;55.566;38.058;2023-07-31T07:06:08;99548.34;;;28.40;45.17
71126;BME280;58785;55.566;38.058;2023-07-31T07:08:34;99549.41;;;28.44;44.76
71126;BME280;58785;55.566;38.058;2023-07-31T07:11:00;99550.81;;;28.41;44.31
71126;BME280;58785;55.566;38.058;2023-07-31T07:13:25;99548.91;;;28.26;44.26
71126;BME280;58785;55.566;38.058;2023-07-31T07:15:51;99547.53;;;28.19;44.70
71126;BME280;58785;55.566;38.058;2023-07-31T07:18:17;99542.88;;;28.19;44.58
71126;BME280;58785;55.566;38.058;2023-07-31T07:20:49;99550.53;;;28.22;43.57
71126;BME280;58785;55.566;38.058;2023-07-31T07:23:15;99553.31;;;28.07;43.29
71126;BME280;58785;55.566;38.058;2023-07-31T07:25:41;99555.22;;;28.01;43.15
71126;BME280;58785;55.566;38.058;2023-07-31T07:28:07;99561.81;;;27.95;43.04
71126;BME280;58785;55.566;38.058;2023-07-31T07:30:32;99559.63;;;27.92;43.18
71126;BME280;58785;55.566;38.058;2023-07-31T07:32:58;99559.91;;;28.01;43.51
71126;BME280;58785;55.566;38.058;2023-07-31T07:35:24;99548.34;;;28.14;43.22
71126;BME280;58785;55.566;38.058;2023-07-31T07:37:49;99550.00;;;28.05;42.64
71126;BME280;58785;55.566;38.058;2023-07-31T07:40:15;99551.09;;;28.04;42.93
71126;BME280;58785;55.566;38.058;2023-07-31T07:42:41;99556.63;;;27.99;42.87
71126;BME280;58785;55.566;38.058;2023-07-31T07:45:08;99552.22;;;27.98;42.46
71126;BME280;58785;55.566;38.058;2023-07-31T07:47:34;99562.91;;;28.04;42.50
71126;BME280;58785;55.566;38.058;2023-07-31T07:50:00;99559.34;;;28.09;42.74
71126;BME280;58785;55.566;38.058;2023-07-31T07:52:25;99559.63;;;27.87;42.95
71126;BME280;58785;55.566;38.058;2023-07-31T07:54:51;99553.88;;;27.73;43.11
71126;BME280;58785;55.566;38.058;2023-07-31T07:57:17;99553.31;;;27.71;42.56
71126;BME280;58785;55.566;38.058;2023-07-31T07:59:43;99555.25;;;27.76;42.22
71126;BME280;58785;55.566;38.058;2023-07-31T08:02:09;99553.59;;;27.75;42.05
71126;BME280;58785;55.566;38.058;2023-07-31T08:04:35;99556.06;;;27.92;42.76
71126;BME280;58785;55.566;38.058;2023-07-31T08:07:00;99558.78;;;28.02;42.74
71126;BME280;58785;55.566;38.058;2023-07-31T08:09:27;99555.22;;;28.01;42.82
71126;BME280;58785;55.566;38.058;2023-07-31T08:11:54;99553.34;;;27.97;42.32
71126;BME280;58785;55.566;38.058;2023-07-31T08:14:22;99553.88;;;27.94;43.07
71126;BME280;58785;55.566;38.058;2023-07-31T08:16:48;99552.22;;;28.03;42.97
71126;BME280;58785;55.566;38.058;2023-07-31T08:19:14;99555.22;;;28.12;42.88
71126;BME280;58785;55.566;38.058;2023-07-31T08:21:39;99557.66;;;28.23;42.13
71126;BME280;58785;55.566;38.058;2023-07-31T08:24:05;99559.88;;;28.11;42.45
71126;BME280;58785;55.566;38.058;2023-07-31T08:26:31;99568.09;;;27.96;42.35
71126;BME280;58785;55.566;38.058;2023-07-31T08:28:56;99567.84;;;27.92;42.15
71126;BME280;58785;55.566;38.058;2023-07-31T08:31:23;99562.91;;;27.84;42.04
71126;BME280;58785;55.566;38.058;2023-07-31T08:33:48;99560.16;;;27.84;42.01
71126;BME280;58785;55.566;38.058;2023-07-31T08:36:14;99564.56;;;27.90;42.67
71126;BME280;58785;55.566;38.058;2023-07-31T08:38:40;99564.84;;;27.99;42.53
71126;BME280;58785;55.566;38.058;2023-07-31T08:41:05;99563.19;;;28.08;42.71
71126;BME280;58785;55.566;38.058;2023-07-31T08:43:32;99566.19;;;28.12;42.82
71126;BME280;58785;55.566;38.058;2023-07-31T08:45:59;99565.38;;;28.11;42.40
71126;BME280;58785;55.566;38.058;2023-07-31T08:48:25;99564.00;;;28.09;41.98
71126;BME280;58785;55.566;38.058;2023-07-31T08:50:52;99564.81;;;28.09;42.23
71126;BME280;58785;55.566;38.058;2023-07-31T08:53:18;99567.03;;;28.07;41.93
71126;BME280;58785;55.566;38.058;2023-07-31T08:55:44;99570.31;;;27.84;41.93
71126;BME280;58785;55.566;38.058;2023-07-31T08:58:12;99576.63;;;27.69;42.43
71126;BME280;58785;55.566;38.058;2023-07-31T09:00:39;99580.94;;;27.55;42.07
71126;BME280;58785;55.566;38.058;2023-07-31T09:03:09;99581.75;;;27.40;41.38
71126;BME280;58785;55.566;38.058;2023-07-31T09:05:42;99574.34;;;27.35;41.22
71126;BME280;58785;55.566;38.058;2023-07-31T09:08:09;99575.97;;;27.31;42.37
71126;BME280;58785;55.566;38.058;2023-07-31T09:10:43;99564.78;;;27.43;43.28
71126;BME280;58785;55.566;38.058;2023-07-31T09:13:09;99569.97;;;27.55;43.03
71126;BME280;58785;55.566;38.058;2023-07-31T09:15:36;99566.69;;;27.53;43.00
71126;BME280;58785;55.566;38.058;2023-07-31T09:18:04;99566.72;;;27.47;42.69
71126;BME280;58785;55.566;38.058;2023-07-31T09:20:31;99565.06;;;27.36;42.70
71126;BME280;58785;55.566;38.058;2023-07-31T09:23:18;99564.50;;;27.39;42.41
71126;BME280;58785;55.566;38.058;2023-07-31T09:25:44;99562.06;;;27.48;43.56
71126;BME280;58785;55.566;38.058;2023-07-31T09:28:11;99561.78;;;27.55;43.50
71126;BME280;58785;55.566;38.058;2023-07-31T09:30:55;99562.31;;;27.62;43.99
71126;BME280;58785;55.566;38.058;2023-07-31T09:33:20;99569.22;;;27.69;43.71
71126;BME280;58785;55.566;38.058;2023-07-31T09:35:47;99566.16;;;27.61;43.38
71126;BME280;58785;55.566;38.058;2023-07-31T09:38:15;99577.91;;;27.41;43.72
71126;BME280;58785;55.566;38.058;2023-07-31T09:40:46;99581.47;;;27.31;43.29
71126;BME280;58785;55.566;38.058;2023-07-31T09:43:17;99577.22;;;26.98;44.15
71126;BME280;58785;55.566;38.058;2023-07-31T09:45:45;99572.97;;;26.65;44.79
71126;BME280;58785;55.566;38.058;2023-07-31T09:48:16;99575.69;;;26.65;44.34
71126;BME280;58785;55.566;38.058;2023-07-31T09:50:48;99574.69;;;26.76;43.52
71126;BME280;58785;55.566;38.058;2023-07-31T09:53:15;99577.47;;;26.91;44.12
71126;BME280;58785;55.566;38.058;2023-07-31T09:55:41;99568.53;;;27.06;44.09
71126;BME280;58785;55.566;38.058;2023-07-31T09:58:12;99576.47;;;27.13;43.30
71126;BME280;58785;55.566;38.058;2023-07-31T10:00:39;99578.03;;;26.93;43.53
71126;BME280;58785;55.566;38.058;2023-07-31T10:03:09;99560.66;;;26.62;43.53
71126;BME280;58785;55.566;38.058;2023-07-31T10:05:37;99574.31;;;26.62;42.95
71126;BME280;58785;55.566;38.058;2023-07-31T10:08:04;99568.31;;;26.65;42.65
71126;BME280;58785;55.566;38.058;2023-07-31T10:10:31;99571.03;;;26.60;43.16
71126;BME280;58785;55.566;38.058;2023-07-31T10:13:01;99576.00;;;26.69;44.08
71126;BME280;58785;55.566;38.058;2023-07-31T10:15:28;99564.84;;;26.80;43.67
71126;BME280;58785;55.566;38.058;2023-07-31T10:17:54;99568.22;;;27.03;44.04
71126;BME280;58785;55.566;38.058;2023-07-31T10:20:21;99563.00;;;26.96;44.42
71126;BME280;58785;55.566;38.058;2023-07-31T10:22:47;99573.91;;;26.86;44.58
71126;BME280;58785;55.566;38.058;2023-07-31T10:25:15;99568.13;;;26.82;45.16
71126;BME280;58785;55.566;38.058;2023-07-31T10:27:42;99565.16;;;26.89;44.82
71126;BME280;58785;55.566;38.058;2023-07-31T10:30:12;99568.22;;;27.03;44.71
71126;BME280;58785;55.566;38.058;2023-07-31T10:32:40;99568.78;;;27.05;43.63
71126;BME280;58785;55.566;38.058;2023-07-31T10:35:08;99568.00;;;27.09;43.99
71126;BME280;58785;55.566;38.058;2023-07-31T10:37:39;99568.00;;;27.14;44.24
71126;BME280;58785;55.566;38.058;2023-07-31T10:40:10;99565.28;;;27.19;43.89
71126;BME280;58785;55.566;38.058;2023-07-31T10:42:50;99565.56;;;27.18;44.05
71126;BME280;58785;55.566;38.058;2023-07-31T10:45:42;99563.56;;;27.03;44.80
71126;BME280;58785;55.566;38.058;2023-07-31T10:48:16;99570.16;;;27.02;45.11
71126;BME280;58785;55.566;38.058;2023-07-31T10:50:50;99573.19;;;27.06;44.85
71126;BME280;58785;55.566;38.058;2023-07-31T10:53:29;99569.63;;;27.10;44.51
71126;BME280;58785;55.566;38.058;2023-07-31T10:56:10;99565.00;;;27.16;44.25
71126;BME280;58785;55.566;38.058;2023-07-31T10:58:44;99557.06;;;27.19;44.59
71126;BME280;58785;55.566;38.058;2023-07-31T11:01:11;99564.97;;;27.11;43.46
71126;BME280;58785;55.566;38.058;2023-07-31T11:03:56;99564.41;;;27.04;43.70
71126;BME280;58785;55.566;38.058;2023-07-31T11:06:22;99565.16;;;26.89;44.39
71126;BME280;58785;55.566;38.058;2023-07-31T11:08:49;99550.25;;;26.64;44.14
71126;BME280;58785;55.566;38.058;2023-07-31T11:11:19;99558.69;;;26.48;44.63
71126;BME280;58785;55.566;38.058;2023-07-31T11:13:50;99565.38;;;26.35;45.28
71126;BME280;58785;55.566;38.058;2023-07-31T11:16:19;99565.03;;;26.21;45.39
71126;BME280;58785;55.566;38.058;2023-07-31T11:18:47;99555.94;;;26.11;45.73
71126;BME280;58785;55.566;38.058;2023-07-31T11:21:18;99559.47;;;26.06;45.68
71126;BME280;58785;55.566;38.058;2023-07-31T11:23:49;99563.84;;;26.07;46.23
71126;BME280;58785;55.566;38.058;2023-07-31T11:26:15;99553.75;;;26.07;46.41
71126;BME280;58785;55.566;38.058;2023-07-31T11:28:41;99556.91;;;25.94;46.45
71126;BME280;58785;55.566;38.058;2023-07-31T11:31:10;99555.75;;;25.85;46.93
71126;BME280;58785;55.566;38.058;2023-07-31T11:33:36;99556.53;;;25.81;46.63
71126;BME280;58785;55.566;38.058;2023-07-31T11:36:02;99547.00;;;25.83;46.75
71126;BME280;58785;55.566;38.058;2023-07-31T11:41:02;99551.63;;;26.20;46.51
71126;BME280;58785;55.566;38.058;2023-07-31T11:43:29;99557.06;;;26.15;47.10
71126;BME280;58785;55.566;38.058;2023-07-31T11:46:00;99552.88;;;26.02;47.05
71126;BME280;58785;55.566;38.058;2023-07-31T11:48:31;99546.78;;;25.90;47.47
71126;BME280;58785;55.566;38.058;2023-07-31T11:51:10;99558.78;;;25.89;48.02
71126;BME280;58785;55.566;38.058;2023-07-31T11:53:47;99552.31;;;26.00;49.02
71126;BME280;58785;55.566;38.058;2023-07-31T11:56:20;99555.19;;;26.20;48.58
71126;BME280;58785;55.566;38.058;2023-07-31T11:58:56;99553.16;;;26.43;48.11
71126;BME280;58785;55.566;38.058;2023-07-31T12:01:23;99559.28;;;26.65;48.35
71126;BME280;58785;55.566;38.058;2023-07-31T12:03:50;99552.75;;;26.71;47.54
71126;BME280;58785;55.566;38.058;2023-07-31T12:06:16;99557.13;;;26.72;47.55
71126;BME280;58785;55.566;38.058;2023-07-31T12:08:42;99560.09;;;26.65;47.44
71126;BME280;58785;55.566;38.058;2023-07-31T12:11:09;99560.66;;;26.62;47.83
71126;BME280;58785;55.566;38.058;2023-07-31T12:13:35;99559.22;;;26.50;47.73
71126;BME280;58785;55.566;38.058;2023-07-31T12:16:03;99555.94;;;26.48;47.95
71126;BME280;58785;55.566;38.058;2023-07-31T12:18:34;99557.81;;;26.42;48.03
71126;BME280;58785;55.566;38.058;2023-07-31T12:21:02;99566.00;;;26.37;47.82
71126;BME280;58785;55.566;38.058;2023-07-31T12:23:31;99553.28;;;26.21;48.09
71126;BME280;58785;55.566;38.058;2023-07-31T12:28:44;99570.16;;;26.13;47.70
71126;BME280;58785;55.566;38.058;2023-07-31T12:31:15;99564.69;;;26.07;48.26
71126;BME280;58785;55.566;38.058;2023-07-31T12:33:43;99571.78;;;26.08;48.33
71126;BME280;58785;55.566;38.058;2023-07-31T12:36:15;99560.66;;;26.20;48.25
71126;BME280;58785;55.566;38.058;2023-07-31T12:38:41;99578.66;;;26.53;48.98
71126;BME280;58785;55.566;38.058;2023-07-31T12:41:08;99568.09;;;26.72;48.46
71126;BME280;58785;55.566;38.058;2023-07-31T12:43:36;99572.81;;;26.87;48.29
71126;BME280;58785;55.566;38.058;2023-07-31T12:46:02;99567.09;;;26.99;48.21
71126;BME280;58785;55.566;38.058;2023-07-31T12:48:29;99567.13;;;27.04;47.36
71126;BME280;58785;55.566;38.058;2023-07-31T12:50:55;99565.75;;;27.01;47.08
71126;BME280;58785;55.566;38.058;2023-07-31T12:53:21;99562.72;;;26.98;47.01
71126;BME280;58785;55.566;38.058;2023-07-31T12:55:47;99564.41;;;27.04;46.96
71126;BME280;58785;55.566;38.058;2023-07-31T12:58:13;99572.38;;;27.10;46.83
71126;BME280;58785;55.566;38.058;2023-07-31T13:00:38;99573.75;;;27.13;46.41